createdAt,value
2022-08-12T00:00:19.812Z,17.83
2022-08-12T00:05:56.419Z,17.73
2022-08-12T00:11:21.201Z,17.55
2022-08-12T00:16:42.097Z,17.36
2022-08-12T00:22:02.961Z,17.33
2022-08-12T00:27:27.401Z,17.25
2022-08-12T00:33:04.439Z,17.14
2022-08-12T00:38:25.102Z,16.90
2022-08-12T00:43:28.594Z,16.67
2022-08-12T00:48:31.638Z,16.74
2022-08-12T00:53:34.471Z,16.65
2022-08-12T00:58:36.395Z,16.45
2022-08-12T01:03:59.650Z,16.67
2022-08-12T01:09:25.562Z,16.54
2022-08-12T01:14:28.489Z,16.65
2022-08-12T01:19:32.827Z,16.69
2022-08-12T01:24:57.134Z,16.68
2022-08-12T01:30:01.559Z,16.58
2022-08-12T01:35:30.352Z,16.60
2022-08-12T01:40:37.924Z,16.26
2022-08-12T01:45:57.432Z,16.18
2022-08-12T01:52:19.999Z,16.13
2022-08-12T01:57:57.143Z,16.16
2022-08-12T02:02:47.866Z,16.18
2022-08-12T02:08:36.484Z,16.29
2022-08-12T02:13:57.364Z,16.24
2022-08-12T02:19:27.683Z,16.13
2022-08-12T02:24:32.965Z,15.90
2022-08-12T02:29:35.902Z,15.66
2022-08-12T02:34:37.849Z,15.58
2022-08-12T02:39:44.452Z,15.62
2022-08-12T02:44:50.908Z,15.70
2022-08-12T02:49:56.498Z,15.62
2022-08-12T02:55:08.369Z,15.63
2022-08-12T03:00:11.735Z,15.61
2022-08-12T03:05:17.915Z,15.30
2022-08-12T03:10:37.153Z,15.03
2022-08-12T03:15:40.341Z,15.03
2022-08-12T03:20:42.182Z,15.02
2022-08-12T03:25:44.113Z,15.00
2022-08-12T03:30:54.769Z,15.04
2022-08-12T03:36:01.511Z,15.13
2022-08-12T03:41:33.522Z,14.88
2022-08-12T03:47:00.422Z,14.67
2022-08-12T03:52:21.834Z,14.65
2022-08-12T03:57:42.242Z,14.38
2022-08-12T04:02:57.232Z,14.35
2022-08-12T04:08:00.028Z,14.59
2022-08-12T04:13:19.805Z,14.36
2022-08-12T04:18:23.482Z,14.21
2022-08-12T04:23:25.919Z,14.18
2022-08-12T04:28:28.358Z,14.19
2022-08-12T04:33:32.244Z,14.23
2022-08-12T04:38:34.630Z,14.18
2022-08-12T04:44:01.591Z,14.07
2022-08-12T04:49:02.630Z,13.96
2022-08-12T04:54:04.989Z,13.94
2022-08-12T04:59:07.686Z,13.97
2022-08-12T05:04:10.660Z,14.24
2022-08-12T05:09:13.630Z,14.59
2022-08-12T05:14:16.457Z,14.73
2022-08-12T05:19:22.786Z,15.01
2022-08-12T05:24:24.631Z,15.15
2022-08-12T05:30:06.860Z,15.26
2022-08-12T05:34:51.725Z,15.57
2022-08-12T05:39:53.562Z,15.83
2022-08-12T05:44:55.766Z,16.08
2022-08-12T05:49:59.065Z,16.31
2022-08-12T05:55:00.890Z,16.51
2022-08-12T06:00:05.189Z,16.71
2022-08-12T06:05:13.939Z,16.93
2022-08-12T06:10:17.595Z,17.22
2022-08-12T06:15:38.117Z,17.48
2022-08-12T06:20:41.351Z,17.74
2022-08-12T06:25:43.587Z,18.04
2022-08-12T06:30:53.121Z,18.34
2022-08-12T06:36:08.436Z,18.60
2022-08-12T06:41:29.986Z,18.76
2022-08-12T06:46:32.148Z,19.01
2022-08-12T06:51:34.165Z,19.29
2022-08-12T07:01:58.259Z,19.87
2022-08-12T07:07:00.299Z,20.08
2022-08-12T07:12:02.080Z,20.26
2022-08-12T07:17:03.827Z,20.61
2022-08-12T07:22:06.544Z,20.85
2022-08-12T07:27:08.194Z,21.07
2022-08-12T07:32:09.905Z,21.32
2022-08-12T07:37:12.953Z,21.50
2022-08-12T07:42:14.618Z,21.63
2022-08-12T07:47:16.360Z,21.83
2022-08-12T07:52:18.627Z,21.99
2022-08-12T07:57:20.747Z,22.18
2022-08-12T08:02:30.696Z,22.41
2022-08-12T08:07:33.418Z,22.52
2022-08-12T08:12:53.424Z,22.60
2022-08-12T08:18:02.732Z,22.74
2022-08-12T08:23:13.582Z,22.94
2022-08-12T08:28:18.946Z,23.06
2022-08-12T08:33:23.493Z,23.08
2022-08-12T08:38:56.051Z,23.17
2022-08-12T08:44:01.460Z,23.32
2022-08-12T08:49:04.923Z,23.44
2022-08-12T08:54:08.729Z,23.68
2022-08-12T08:59:11.841Z,23.86
2022-08-12T09:05:07.917Z,23.99
2022-08-12T09:10:02.419Z,24.21
2022-08-12T09:14:59.783Z,24.39
2022-08-12T09:20:01.804Z,24.40
2022-08-12T09:25:07.151Z,24.54
2022-08-12T09:30:15.739Z,24.42
2022-08-12T09:35:28.251Z,24.37
2022-08-12T09:41:02.160Z,24.43
2022-08-12T09:46:11.208Z,24.57
2022-08-12T09:51:21.707Z,24.65
2022-08-12T09:56:58.791Z,24.41
2022-08-12T10:02:41.813Z,24.11
2022-08-12T10:07:23.076Z,23.92
2022-08-12T10:13:06.804Z,23.95
2022-08-12T10:18:08.016Z,23.91
2022-08-12T10:23:12.561Z,24.22
2022-08-12T10:28:33.073Z,24.47
2022-08-12T10:33:43.566Z,24.29
2022-08-12T10:38:56.679Z,24.39
2022-08-12T10:43:58.382Z,24.63
2022-08-12T10:49:06.617Z,24.89
2022-08-12T10:54:26.865Z,25.07
2022-08-12T11:00:31.944Z,25.44
2022-08-12T11:04:52.202Z,25.47
2022-08-12T11:10:00.679Z,25.32
2022-08-12T11:15:18.540Z,25.38
2022-08-12T11:20:24.488Z,25.71
2022-08-12T11:25:56.697Z,25.86
2022-08-12T11:30:54.444Z,26.06
2022-08-12T11:36:03.656Z,26.22
2022-08-12T11:41:05.668Z,26.20
2022-08-12T11:46:07.452Z,26.37
2022-08-12T11:51:11.558Z,26.46
2022-08-12T11:56:15.242Z,26.21
2022-08-12T12:01:58.895Z,26.49
2022-08-12T12:06:38.976Z,26.55
2022-08-12T12:11:48.970Z,26.29
2022-08-12T12:16:51.293Z,26.37
2022-08-12T12:21:53.121Z,26.45
2022-08-12T12:27:00.602Z,26.92
2022-08-12T12:32:10.732Z,27.06
2022-08-12T12:37:16.376Z,26.97
2022-08-12T12:42:42.073Z,27.36
2022-08-12T12:47:56.861Z,27.41
2022-08-12T12:52:59.119Z,26.63
2022-08-12T12:58:11.144Z,27.13
2022-08-12T13:03:19.330Z,27.95
2022-08-12T13:08:35.919Z,27.47
2022-08-12T13:14:12.078Z,26.67
2022-08-12T13:18:59.584Z,26.15
2022-08-12T13:24:09.526Z,26.58
2022-08-12T13:29:12.920Z,26.99
2022-08-12T13:34:31.777Z,27.29
2022-08-12T13:39:36.008Z,27.45
2022-08-12T13:44:37.713Z,27.75
2022-08-12T13:49:53.963Z,27.83
2022-08-12T13:54:58.738Z,27.71
2022-08-12T14:00:01.678Z,27.54
2022-08-12T14:05:31.510Z,27.51
2022-08-12T14:10:52.010Z,27.60
2022-08-12T14:15:55.862Z,26.92
2022-08-12T14:21:04.162Z,26.81
2022-08-12T14:26:12.120Z,27.11
2022-08-12T14:31:18.219Z,26.61
2022-08-12T14:36:22.745Z,26.50
2022-08-12T14:41:37.244Z,26.89
2022-08-12T14:46:53.113Z,26.45
2022-08-12T14:52:43.369Z,26.66
2022-08-12T14:57:23.872Z,26.50
2022-08-12T15:02:29.561Z,26.13
2022-08-12T15:07:33.507Z,25.75
2022-08-12T15:12:46.177Z,25.57
2022-08-12T15:17:59.162Z,25.49
2022-08-12T15:23:02.876Z,25.50
2022-08-12T15:28:20.764Z,25.44
2022-08-12T15:33:25.232Z,25.44
2022-08-12T15:38:47.031Z,25.66
2022-08-12T15:44:15.670Z,25.49
2022-08-12T15:49:17.048Z,25.26
2022-08-12T15:54:35.041Z,25.17
2022-08-12T15:59:51.335Z,25.18
2022-08-12T16:05:00.202Z,25.71
2022-08-12T16:10:06.881Z,25.97
2022-08-12T16:15:11.529Z,25.66
2022-08-12T16:20:33.145Z,25.48
2022-08-12T16:26:03.218Z,25.75
2022-08-12T16:31:00.231Z,25.76
2022-08-12T16:36:08.098Z,26.02
2022-08-12T16:41:13.456Z,26.26
2022-08-12T16:46:31.588Z,26.37
2022-08-12T16:51:40.314Z,26.41
2022-08-12T16:56:55.212Z,26.67
2022-08-12T17:02:00.514Z,26.63
2022-08-12T17:07:02.887Z,26.44
2022-08-12T17:12:05.401Z,26.25
2022-08-12T17:17:09.816Z,26.04
2022-08-12T17:22:30.369Z,25.96
2022-08-12T17:27:34.146Z,25.79
2022-08-12T17:32:39.632Z,25.72
2022-08-12T17:37:42.933Z,25.76
2022-08-12T17:42:47.666Z,25.67
2022-08-12T17:48:01.371Z,25.44
2022-08-12T17:53:12.456Z,25.16
2022-08-12T17:58:37.174Z,25.01
2022-08-12T18:04:05.732Z,24.90
2022-08-12T18:09:08.870Z,24.85
2022-08-12T18:14:11.363Z,24.75
2022-08-12T18:19:17.547Z,24.46
2022-08-12T18:24:22.175Z,24.17
2022-08-12T18:29:41.836Z,23.96
2022-08-12T18:34:45.257Z,23.74
2022-08-12T18:40:14.939Z,23.62
2022-08-12T18:45:21.342Z,23.45
2022-08-12T18:50:24.621Z,23.21
2022-08-12T18:55:26.996Z,22.99
2022-08-12T19:00:43.291Z,22.84
2022-08-12T19:05:54.084Z,22.58
2022-08-12T19:11:20.408Z,22.30
2022-08-12T19:16:22.926Z,22.06
2022-08-12T19:21:25.070Z,21.90
2022-08-12T19:26:28.062Z,21.65
2022-08-12T19:31:55.543Z,21.39
2022-08-12T19:37:04.250Z,21.18
2022-08-12T19:42:06.530Z,20.85
2022-08-12T19:47:11.886Z,20.83
2022-08-12T19:52:21.153Z,20.60
2022-08-12T19:57:24.047Z,20.36
2022-08-12T20:02:33.123Z,20.25
2022-08-12T20:07:42.843Z,20.11
2022-08-12T20:13:10.115Z,20.27
2022-08-12T20:18:18.969Z,20.33
2022-08-12T20:23:37.110Z,20.39
2022-08-12T20:28:52.880Z,20.35
2022-08-12T20:33:56.633Z,20.10
2022-08-12T20:39:00.965Z,19.94
2022-08-12T20:44:04.509Z,19.75
2022-08-12T20:49:18.835Z,19.58
2022-08-12T20:54:22.175Z,19.22
2022-08-12T20:59:26.413Z,19.13
2022-08-12T21:04:52.172Z,19.06
2022-08-12T21:09:53.909Z,18.84
2022-08-12T21:15:16.671Z,18.58
2022-08-12T21:20:23.323Z,18.47
2022-08-12T21:25:36.021Z,18.40
2022-08-12T21:31:11.483Z,18.23
2022-08-12T21:36:09.168Z,18.11
2022-08-12T21:41:24.698Z,18.04
2022-08-12T21:46:35.017Z,18.05
2022-08-12T21:51:49.256Z,17.91
2022-08-12T21:56:53.744Z,17.86
2022-08-12T22:01:55.585Z,17.93
2022-08-12T22:06:59.216Z,17.70
2022-08-12T22:12:21.216Z,17.43
2022-08-12T22:17:33.912Z,17.66
2022-08-12T22:22:56.092Z,17.44
2022-08-12T22:28:17.131Z,17.00
2022-08-12T22:33:26.416Z,16.91
2022-08-12T22:38:29.745Z,17.13
2022-08-12T22:43:59.929Z,16.92
2022-08-12T22:49:06.368Z,16.53
2022-08-12T22:54:28.082Z,16.39
2022-08-12T22:59:51.066Z,16.43
2022-08-12T23:04:52.321Z,16.47
2022-08-12T23:09:56.954Z,16.33
2022-08-12T23:14:58.651Z,16.40
2022-08-12T23:20:01.655Z,16.37
2022-08-12T23:25:03.741Z,16.42
2022-08-12T23:30:18.879Z,16.40
2022-08-12T23:35:45.929Z,16.46
2022-08-12T23:40:54.574Z,16.35
2022-08-12T23:46:00.909Z,16.25
2022-08-12T23:51:21.715Z,16.37
2022-08-12T23:56:25.735Z,16.19
